Time;durP1;ratioP1;P1;durP2;ratioP2;P2;SDS_P1;SDS_P2;PMS_P1;PMS_P2;Temp;Humidity;BMP_temperature;BMP_pressure;BME280_temperature;BME280_humidity;BME280_pressure;Samples;Min_cycle;Max_cycle;Signal;HPM_P1;HPM_P2
2022/11/19 00:01:02;;;;;;;5.72;1.10;;;21.90;27.10;;;;;;5039742;28;20085;-67
2022/11/19 00:03:31;;;;;;;7.10;1.70;;;21.90;26.50;;;;;;5037620;28;20076;-68
2022/11/19 00:06:08;;;;;;;8.57;1.48;;;21.80;27.00;;;;;;5038515;28;20130;-66
2022/11/19 00:08:35;;;;;;;6.10;1.20;;;21.70;27.10;;;;;;5036834;28;20066;-67
2022/11/19 00:11:10;;;;;;;7.20;1.05;;;21.70;27.20;;;;;;5037101;28;20157;-68
2022/11/19 00:13:38;;;;;;;9.25;0.98;;;21.50;27.60;;;;;;5038131;28;20099;-67
2022/11/19 00:16:09;;;;;;;5.32;1.05;;;21.40;27.60;;;;;;5031944;28;20139;-67
2022/11/19 00:18:36;;;;;;;5.60;1.27;;;21.30;27.60;;;;;;5035363;28;20081;-66
2022/11/19 00:21:05;;;;;;;4.45;1.17;;;21.30;28.20;;;;;;5039717;28;20076;-71
2022/11/19 00:23:31;;;;;;;6.25;1.20;;;21.20;28.80;;;;;;5038473;28;20101;-69
2022/11/19 00:26:07;;;;;;;3.15;0.95;;;21.10;29.00;;;;;;5040889;28;20553;-71
2022/11/19 00:28:35;;;;;;;9.77;1.40;;;21.10;29.10;;;;;;5033816;28;20076;-71
2022/11/19 00:31:07;;;;;;;6.85;1.35;;;21.00;29.60;;;;;;5034756;28;20154;-70
2022/11/19 00:33:33;;;;;;;12.13;2.22;;;20.90;30.00;;;;;;5039616;28;20066;-72
2022/11/19 00:36:01;;;;;;;12.27;2.72;;;20.80;30.00;;;;;;5037455;28;20086;-69
2022/11/19 00:38:28;;;;;;;12.23;2.85;;;20.70;30.50;;;;;;5038155;28;20074;-70
2022/11/19 00:40:55;;;;;;;10.38;2.40;;;20.60;31.20;;;;;;5033106;28;20539;-69
2022/11/19 00:46:06;;;;;;;15.35;2.55;;;20.30;32.70;;;;;;5035706;28;20084;-67
2022/11/19 00:48:33;;;;;;;16.45;2.45;;;20.20;34.00;;;;;;5031261;28;20100;-66
2022/11/19 00:50:59;;;;;;;25.20;3.00;;;20.10;34.60;;;;;;5035000;28;20078;-69
2022/11/19 00:53:25;;;;;;;26.48;3.05;;;20.00;35.00;;;;;;5037896;28;20508;-67
2022/11/19 00:55:52;;;;;;;44.28;3.33;;;19.90;35.20;;;;;;5038608;28;20097;-65
2022/11/19 00:58:18;;;;;;;24.00;3.28;;;19.70;35.50;;;;;;5037485;28;20112;-68
2022/11/19 01:00:46;;;;;;;17.83;2.80;;;19.60;36.20;;;;;;5036150;28;20470;-68
2022/11/19 01:03:12;;;;;;;26.70;2.95;;;19.50;37.10;;;;;;5038362;28;20078;-65
2022/11/19 01:05:39;;;;;;;22.42;2.88;;;19.30;36.70;;;;;;5048714;28;20073;-65
2022/11/19 01:08:05;;;;;;;21.52;3.38;;;19.30;36.80;;;;;;5042822;28;20420;-67
2022/11/19 01:10:34;;;;;;;19.90;2.92;;;19.20;37.60;;;;;;5041147;28;20076;-68
2022/11/19 01:15:49;;;;;;;24.10;5.10;;;18.90;37.60;;;;;;5040944;28;20899;-67
2022/11/19 01:18:17;;;;;;;20.45;4.97;;;18.80;38.00;;;;;;5041856;28;20159;-68
2022/11/19 01:20:45;;;;;;;23.63;4.80;;;18.70;38.10;;;;;;5036695;28;20077;-69
2022/11/19 01:23:11;;;;;;;25.85;4.60;;;18.50;38.50;;;;;;5043957;28;20432;-70
2022/11/19 01:25:38;;;;;;;31.67;5.10;;;18.50;38.50;;;;;;5043803;28;20152;-70
2022/11/19 01:28:05;;;;;;;34.67;5.38;;;18.40;39.60;;;;;;5037940;28;20463;-68
2022/11/19 01:30:32;;;;;;;35.25;6.05;;;18.30;40.90;;;;;;5039725;28;20086;-69
2022/11/19 01:32:59;;;;;;;46.03;5.40;;;18.20;40.20;;;;;;5040102;28;20074;-68
2022/11/19 01:35:25;;;;;;;31.52;5.55;;;18.10;40.00;;;;;;5042187;28;20168;-67
2022/11/19 01:37:52;;;;;;;30.48;5.93;;;18.10;40.40;;;;;;5041930;28;20065;-70
2022/11/19 01:40:19;;;;;;;48.92;6.13;;;18.00;40.60;;;;;;5040507;28;20062;-67
2022/11/19 01:42:54;;;;;;;30.50;5.63;;;18.00;40.70;;;;;;5044123;28;20086;-68
2022/11/19 01:45:34;;;;;;;37.47;6.60;;;17.90;40.40;;;;;;5041279;28;20073;-71
2022/11/19 01:48:06;;;;;;;41.38;7.15;;;17.80;40.30;;;;;;5037708;28;20100;-69
2022/11/19 01:50:37;;;;;;;52.75;8.10;;;17.70;40.80;;;;;;5042463;28;20550;-69
2022/11/19 01:53:04;;;;;;;59.75;9.52;;;17.70;41.00;;;;;;5046823;28;20073;-69
2022/11/19 01:55:30;;;;;;;53.10;8.55;;;17.50;41.10;;;;;;5038487;28;20089;-69
2022/11/19 01:58:00;;;;;;;58.90;9.23;;;17.50;41.70;;;;;;5042208;28;20550;-67
2022/11/19 02:00:27;;;;;;;49.70;9.18;;;17.40;42.00;;;;;;5041316;28;20653;-68
2022/11/19 02:02:54;;;;;;;47.05;8.10;;;17.40;43.10;;;;;;5042673;28;20736;-70
2022/11/19 02:05:21;;;;;;;45.92;8.95;;;17.30;43.30;;;;;;5047167;28;20206;-70
2022/11/19 02:07:53;;;;;;;55.17;9.93;;;17.30;43.00;;;;;;5042497;28;20080;-69
2022/11/19 02:10:43;;;;;;;44.15;8.98;;;17.20;43.00;;;;;;5051913;28;20152;-70
2022/11/19 02:13:39;;;;;;;52.35;8.98;;;17.10;42.50;;;;;;5036824;28;20153;-69
2022/11/19 02:16:25;;;;;;;59.25;8.30;;;17.10;42.40;;;;;;5033469;28;20082;-72
2022/11/19 02:19:10;;;;;;;51.67;9.57;;;17.00;42.10;;;;;;5060946;28;20079;-69
2022/11/19 02:22:09;;;;;;;62.90;9.65;;;17.00;42.90;;;;;;5040565;28;20105;-70
2022/11/19 02:24:57;;;;;;;59.53;11.88;;;16.90;43.10;;;;;;5038952;28;20444;-69
2022/11/19 02:28:02;;;;;;;47.05;11.23;;;16.90;43.00;;;;;;5038210;28;20076;-70
2022/11/19 02:30:36;;;;;;;46.05;12.75;;;16.80;43.50;;;;;;5022801;28;20096;-70
2022/11/19 02:33:14;;;;;;;52.15;12.48;;;16.70;43.70;;;;;;5043952;28;20070;-68
2022/11/19 02:35:48;;;;;;;63.15;13.13;;;16.70;43.10;;;;;;5041135;28;20085;-70
2022/11/19 02:38:38;;;;;;;60.13;13.35;;;16.60;44.00;;;;;;5042170;28;20169;-69
2022/11/19 02:41:33;;;;;;;61.65;14.43;;;16.60;45.10;;;;;;5043380;28;20066;-70
2022/11/19 02:47:51;;;;;;;106.75;37.80;;;16.50;45.00;;;;;;5036905;28;20135;-71
2022/11/19 02:50:29;;;;;;;73.53;22.40;;;16.40;45.80;;;;;;5030673;28;20088;-67
2022/11/19 02:52:56;;;;;;;80.65;16.38;;;16.40;46.70;;;;;;5036136;28;20555;-64
2022/11/19 02:55:22;;;;;;;75.68;17.30;;;16.30;45.80;;;;;;5041604;28;20547;-67
2022/11/19 03:04:28;;;;;;;82.07;27.05;;;16.20;45.80;;;;;;5039975;28;20089;-65
2022/11/19 03:06:33;;;;;;;150.80;59.63;;;16.00;45.80;;;;;;5044147;28;20302;-69
2022/11/19 03:09:00;;;;;;;109.55;53.72;;;16.00;45.60;;;;;;5040820;28;20100;-71
2022/11/19 03:11:28;;;;;;;176.77;85.20;;;16.00;46.10;;;;;;5039426;28;20077;-69
2022/11/19 03:17:29;;;;;;;112.82;48.25;;;15.90;47.10;;;;;;4980454;28;20107;-67
2022/11/19 03:20:01;;;;;;;104.00;32.65;;;15.80;46.80;;;;;;4977367;28;20497;-66
2022/11/19 03:22:35;;;;;;;97.53;29.40;;;15.80;47.20;;;;;;4975406;28;20576;-65
2022/11/19 03:25:08;;;;;;;91.75;26.85;;;15.70;48.40;;;;;;4976747;28;20091;-65
2022/11/19 03:27:40;;;;;;;77.32;22.35;;;15.70;48.40;;;;;;4976099;28;20091;-63
2022/11/19 03:30:08;;;;;;;86.50;23.65;;;15.60;47.70;;;;;;4974299;28;20088;-64
2022/11/19 03:33:06;;;;;;;91.43;24.35;;;15.60;47.60;;;;;;4976750;28;20099;-63
2022/11/19 03:35:55;;;;;;;145.02;51.72;;;15.60;47.70;;;;;;4975625;28;20099;-61
2022/11/19 03:38:32;;;;;;;105.20;26.48;;;15.40;47.00;;;;;;4971748;28;20071;-63
2022/11/19 03:41:02;;;;;;;96.65;22.08;;;15.40;48.20;;;;;;4977033;28;20093;-61
2022/11/19 03:43:33;;;;;;;90.35;19.55;;;15.30;46.60;;;;;;4975577;28;20079;-63
2022/11/19 03:46:04;;;;;;;90.03;20.45;;;15.30;47.70;;;;;;4979303;28;20075;-63
2022/11/19 03:48:31;;;;;;;84.88;19.35;;;15.30;47.00;;;;;;5021630;28;20090;-63
2022/11/19 03:51:03;;;;;;;86.47;18.90;;;15.30;47.40;;;;;;5039382;28;20074;-65
2022/11/19 03:53:30;;;;;;;94.95;18.25;;;15.30;47.90;;;;;;5038317;28;20081;-65
2022/11/19 03:56:01;;;;;;;91.63;18.58;;;15.20;47.00;;;;;;5031104;28;20114;-64
2022/11/19 03:58:28;;;;;;;95.53;19.60;;;15.20;48.10;;;;;;5035091;28;20124;-63
2022/11/19 04:00:55;;;;;;;92.75;21.70;;;15.00;47.00;;;;;;5040383;28;20076;-63
2022/11/19 04:03:21;;;;;;;96.80;30.70;;;15.00;47.00;;;;;;5037807;28;20172;-64
2022/11/19 04:05:48;;;;;;;74.53;23.33;;;15.00;47.50;;;;;;5042468;28;20092;-62
2022/11/19 04:08:14;;;;;;;;;;;14.90;46.50;;;;;;5040826;28;20073;-65
2022/11/19 04:10:40;;;;;;;82.95;18.63;;;15.00;47.90;;;;;;5040672;28;19968;-64
2022/11/19 04:13:06;;;;;;;;;;;14.90;46.50;;;;;;5039759;28;20756;-63
2022/11/19 04:15:33;;;;;;;84.13;19.13;;;14.90;46.10;;;;;;5040292;28;19984;-63
2022/11/19 04:17:59;;;;;;;78.03;17.45;;;15.00;47.40;;;;;;5041657;28;20085;-64
2022/11/19 04:20:25;;;;;;;;;;;15.00;47.50;;;;;;5036659;28;20070;-64
2022/11/19 04:22:51;;;;;;;60.45;16.45;;;14.90;47.60;;;;;;5035559;28;19985;-64
2022/11/19 04:25:17;;;;;;;;;;;14.90;48.00;;;;;;5045110;28;20085;-65
2022/11/19 04:27:47;;;;;;;81.00;17.38;;;14.80;48.40;;;;;;5037450;28;20484;-63
2022/11/19 04:30:14;;;;;;;79.57;17.77;;;14.80;47.50;;;;;;5036797;28;20216;-64
2022/11/19 04:32:41;;;;;;;77.22;16.90;;;14.80;48.60;;;;;;5036794;28;20527;-64
2022/11/19 04:35:08;;;;;;;61.35;15.65;;;14.80;48.70;;;;;;5040636;28;20218;-64
2022/11/19 04:37:34;;;;;;;71.97;16.83;;;14.70;49.00;;;;;;5044899;28;20093;-65
2022/11/19 04:40:00;;;;;;;;;;;14.60;48.40;;;;;;5040256;28;20062;-65
2022/11/19 04:42:27;;;;;;;67.47;13.65;;;14.50;48.10;;;;;;5043868;28;19980;-64
2022/11/19 04:44:53;;;;;;;;;;;14.50;48.90;;;;;;5040804;28;20642;-65
2022/11/19 04:47:19;;;;;;;63.40;15.82;;;14.50;48.70;;;;;;5040317;28;20430;-63
2022/11/19 04:49:45;;;;;;;;;;;14.40;48.80;;;;;;5042031;28;20092;-64
2022/11/19 04:52:11;;;;;;;62.70;17.67;;;14.50;49.90;;;;;;5041159;28;19973;-64
2022/11/19 04:54:38;;;;;;;;;;;14.50;51.00;;;;;;5040660;28;20105;-64
2022/11/19 04:57:04;;;;;;;62.85;17.25;;;14.40;50.40;;;;;;5041600;28;19977;-66
2022/11/19 04:59:30;;;;;;;;;;;14.30;50.00;;;;;;5047177;28;20151;-64
2022/11/19 05:01:56;;;;;;;85.65;22.58;;;14.30;51.20;;;;;;5040396;28;19993;-63
2022/11/19 05:04:22;;;;;;;;;;;14.20;50.60;;;;;;5044555;28;20067;-64
2022/11/19 05:06:49;;;;;;;71.07;20.85;;;14.20;50.60;;;;;;5046758;28;19969;-66
2022/11/19 05:09:15;;;;;;;;;;;14.20;51.30;;;;;;5057779;28;20093;-65
2022/11/19 05:11:41;;;;;;;75.03;21.30;;;14.10;51.00;;;;;;5038696;28;19964;-62
2022/11/19 05:14:07;;;;;;;;;;;14.10;51.90;;;;;;5046187;28;20146;-64
2022/11/19 05:16:34;;;;;;;74.13;21.92;;;14.00;51.60;;;;;;5037403;28;19973;-65
2022/11/19 05:19:00;;;;;;;;;;;13.90;51.50;;;;;;5042464;28;20078;-64
2022/11/19 05:21:26;;;;;;;122.10;48.65;;;14.00;50.80;;;;;;5039254;28;20375;-64
2022/11/19 05:23:53;;;;;;;100.95;41.75;;;13.90;50.60;;;;;;5041524;28;20601;-65
2022/11/19 05:26:19;;;;;;;;;;;13.90;51.20;;;;;;5040599;28;20070;-65
2022/11/19 05:28:45;;;;;;;84.72;30.10;;;13.90;51.60;;;;;;5042037;28;20436;-66
2022/11/19 05:31:11;;;;;;;;;;;13.80;51.60;;;;;;5062355;28;20116;-65
2022/11/19 05:33:37;;;;;;;74.38;24.50;;;13.70;51.10;;;;;;5040916;28;20008;-64
2022/11/19 05:36:04;;;;;;;;;;;13.70;51.70;;;;;;5049239;28;20085;-64
2022/11/19 05:38:30;;;;;;;70.22;20.30;;;13.70;50.70;;;;;;5043566;28;19957;-64
2022/11/19 05:40:57;;;;;;;68.47;18.38;;;13.70;50.50;;;;;;5042425;28;20115;-65
2022/11/19 05:43:23;;;;;;;;;;;13.80;49.40;;;;;;5038992;28;20070;-64
2022/11/19 05:45:49;;;;;;;52.83;19.13;;;13.80;49.90;;;;;;5045617;28;19964;-64
2022/11/19 05:48:15;;;;;;;66.03;17.13;;;13.80;48.70;;;;;;5041514;28;20081;-65
2022/11/19 05:50:41;;;;;;;;;;;13.90;48.70;;;;;;5040159;28;20094;-62
2022/11/19 05:53:08;;;;;;;49.20;16.73;;;13.80;48.30;;;;;;5043993;28;19961;-63
2022/11/19 05:55:35;;;;;;;51.15;14.30;;;13.90;47.30;;;;;;5023191;28;20139;-63
2022/11/19 05:58:01;;;;;;;48.72;12.85;;;13.90;47.50;;;;;;5041562;28;20066;-63
2022/11/19 06:00:27;;;;;;;;;;;13.90;46.60;;;;;;5040138;28;20070;-63
2022/11/19 06:02:54;;;;;;;33.97;10.90;;;13.90;46.70;;;;;;5042495;28;20115;-63
2022/11/19 06:05:20;;;;;;;;;;;13.90;45.60;;;;;;5062699;28;20077;-63
2022/11/19 06:07:46;;;;;;;34.67;9.20;;;13.90;46.10;;;;;;5044220;28;19961;-63
2022/11/19 06:10:12;;;;;;;;;;;13.90;46.70;;;;;;5041259;28;20088;-66
2022/11/19 06:12:40;;;;;;;31.33;10.05;;;13.90;46.30;;;;;;5048101;28;20055;-64
2022/11/19 06:15:07;;;;;;;36.63;10.10;;;13.80;46.70;;;;;;5044826;28;20089;-65
2022/11/19 06:17:33;;;;;;;33.10;9.20;;;13.90;45.90;;;;;;5040144;28;20086;-66
2022/11/19 06:20:00;;;;;;;;;;;13.80;45.60;;;;;;5042329;28;20531;-65
2022/11/19 06:22:26;;;;;;;40.17;12.25;;;13.80;46.20;;;;;;5037611;28;20337;-65
2022/11/19 06:24:52;;;;;;;;;;;13.70;46.80;;;;;;5038773;28;20093;-63
2022/11/19 06:27:18;;;;;;;65.05;22.42;;;13.70;46.30;;;;;;5043045;28;20064;-66
2022/11/19 06:29:44;;;;;;;;;;;13.60;47.10;;;;;;5043984;28;20078;-64
2022/11/19 06:32:11;;;;;;;57.55;19.95;;;13.70;46.80;;;;;;5042687;28;20003;-64
2022/11/19 06:34:37;;;;;;;;;;;13.60;47.40;;;;;;5039517;28;20084;-64
2022/11/19 06:37:03;;;;;;;64.80;16.35;;;13.60;47.00;;;;;;5043908;28;19973;-65
2022/11/19 06:39:29;;;;;;;;;;;13.60;47.50;;;;;;5042721;28;20072;-65
2022/11/19 06:42:34;;;;;;;65.90;16.08;;;13.50;47.50;;;;;;5036178;28;20438;-66
2022/11/19 06:44:42;;;;;;;70.93;16.88;;;13.40;48.00;;;;;;5041260;28;20530;-65
2022/11/19 06:47:08;;;;;;;;;;;13.50;47.70;;;;;;5042116;28;20458;-65
2022/11/19 06:49:34;;;;;;;96.00;37.88;;;13.50;47.70;;;;;;5041263;28;19958;-66
2022/11/19 06:52:00;;;;;;;;;;;13.40;48.50;;;;;;5041300;28;20077;-65
2022/11/19 06:54:26;;;;;;;81.85;23.13;;;13.30;48.30;;;;;;5041987;28;20027;-62
2022/11/19 06:56:52;;;;;;;;;;;13.30;48.70;;;;;;5042990;28;20120;-63
2022/11/19 06:59:19;;;;;;;82.55;21.58;;;13.20;47.70;;;;;;5037838;28;19996;-64
2022/11/19 07:01:45;;;;;;;72.75;21.70;;;13.20;48.10;;;;;;5036549;28;20074;-66
2022/11/19 07:04:11;;;;;;;;;;;13.20;47.80;;;;;;5046595;28;20076;-65
2022/11/19 07:06:38;;;;;;;80.55;23.50;;;13.10;47.80;;;;;;5034418;28;19969;-67
2022/11/19 07:09:04;;;;;;;;;;;13.10;48.60;;;;;;5039431;28;20452;-65
2022/11/19 07:11:30;;;;;;;67.70;22.42;;;13.10;47.50;;;;;;5038575;28;19969;-63
2022/11/19 07:13:56;;;;;;;;;;;13.20;48.30;;;;;;5038015;28;20097;-66
2022/11/19 07:16:25;;;;;;;77.88;22.35;;;13.10;47.10;;;;;;5037436;28;20067;-65
2022/11/19 07:18:51;;;;;;;78.80;22.35;;;13.00;47.60;;;;;;5035922;28;20539;-64
2022/11/19 07:21:17;;;;;;;;;;;13.00;47.70;;;;;;5036325;28;20074;-67
2022/11/19 07:23:44;;;;;;;96.28;23.23;;;12.90;47.90;;;;;;5039288;28;20043;-64
2022/11/19 07:26:10;;;;;;;;;;;12.90;48.40;;;;;;5040176;28;20073;-66
2022/11/19 07:28:36;;;;;;;82.75;19.98;;;12.80;47.90;;;;;;5038686;28;19966;-66
2022/11/19 07:31:06;;;;;;;;;;;12.70;47.10;;;;;;5040770;28;20083;-65
2022/11/19 07:33:34;;;;;;;64.03;15.95;;;12.80;44.90;;;;;;5036976;28;19965;-63
2022/11/19 07:36:01;;;;;;;59.78;15.23;;;12.90;42.70;;;;;;5036163;28;20086;-64
2022/11/19 07:38:28;;;;;;;52.95;17.15;;;12.90;42.30;;;;;;5038262;28;20073;-64
2022/11/19 07:40:55;;;;;;;63.35;17.77;;;13.00;42.30;;;;;;5038000;28;20074;-65
2022/11/19 07:43:22;;;;;;;42.35;16.10;;;13.00;42.00;;;;;;5042009;28;20091;-65
2022/11/19 07:45:48;;;;;;;50.47;14.43;;;13.00;41.00;;;;;;5038331;28;20074;-64
2022/11/19 07:48:15;;;;;;;;;;;13.00;41.00;;;;;;5038998;28;20113;-67
2022/11/19 07:50:41;;;;;;;39.05;11.93;;;13.00;41.00;;;;;;5056534;28;20007;-65
2022/11/19 07:53:11;;;;;;;36.25;10.27;;;12.90;42.20;;;;;;5039385;28;20531;-67
2022/11/19 07:55:37;;;;;;;32.67;9.52;;;12.90;42.80;;;;;;5039740;28;20454;-64
2022/11/19 07:58:03;;;;;;;;;;;12.90;43.20;;;;;;5041465;28;20077;-66
2022/11/19 08:00:29;;;;;;;38.50;9.20;;;12.90;43.60;;;;;;5034738;28;19981;-66
2022/11/19 08:02:55;;;;;;;;;;;12.90;44.70;;;;;;5039809;28;20558;-67
2022/11/19 08:05:22;;;;;;;29.75;8.27;;;12.80;43.10;;;;;;5038269;28;19964;-65
2022/11/19 08:07:48;;;;;;;37.22;8.57;;;12.80;43.50;;;;;;5033588;28;20098;-67
2022/11/19 08:10:14;;;;;;;;;;;12.70;44.00;;;;;;5040829;28;20101;-66
2022/11/19 08:13:01;;;;;;;29.27;8.30;;;12.70;43.50;;;;;;5043025;28;20007;-67
2022/11/19 08:15:27;;;;;;;34.70;11.80;;;12.70;42.90;;;;;;5047849;28;20090;-67
2022/11/19 08:18:11;;;;;;;;;;;12.60;42.30;;;;;;5038901;28;20078;-63
2022/11/19 08:20:42;;;;;;;25.75;10.48;;;12.60;42.20;;;;;;5041646;28;20426;-64
2022/11/19 08:23:09;;;;;;;26.13;11.52;;;12.60;41.80;;;;;;5043995;28;20175;-65
2022/11/19 08:25:37;;;;;;;27.17;9.63;;;12.60;42.70;;;;;;5042860;28;20090;-66
2022/11/19 08:28:04;;;;;;;20.83;8.15;;;12.60;42.00;;;;;;5041850;28;20104;-64
2022/11/19 08:30:31;;;;;;;16.08;8.07;;;12.70;39.70;;;;;;5042775;28;20081;-66
2022/11/19 08:32:58;;;;;;;14.65;6.32;;;12.80;39.50;;;;;;5041741;28;20109;-66
2022/11/19 08:35:24;;;;;;;;;;;12.80;39.30;;;;;;5038299;28;20093;-66
2022/11/19 08:37:50;;;;;;;12.65;5.80;;;12.90;39.10;;;;;;5047315;28;19980;-64
2022/11/19 08:40:16;;;;;;;;;;;12.90;38.80;;;;;;5042097;28;20094;-67
2022/11/19 08:43:01;;;;;;;20.67;5.47;;;12.80;40.00;;;;;;5042469;28;20116;-65
2022/11/19 08:45:32;;;;;;;15.55;5.55;;;12.90;39.70;;;;;;5042613;28;20184;-69
2022/11/19 08:48:00;;;;;;;18.88;6.35;;;12.90;40.70;;;;;;5038057;28;20073;-70
2022/11/19 08:50:27;;;;;;;21.65;6.57;;;12.90;41.10;;;;;;5043165;28;20080;-67
2022/11/19 08:52:59;;;;;;;15.75;5.60;;;12.80;40.20;;;;;;5047395;28;20081;-69
2022/11/19 08:55:28;;;;;;;12.10;5.32;;;12.80;40.10;;;;;;5040143;28;20089;-69
2022/11/19 08:58:02;;;;;;;15.38;4.65;;;12.80;40.40;;;;;;5045345;28;20085;-68
2022/11/19 09:00:29;;;;;;;18.98;4.18;;;12.70;40.30;;;;;;5048166;28;20458;-70
2022/11/19 09:02:55;;;;;;;13.25;4.10;;;12.80;40.00;;;;;;5038088;28;20160;-68
2022/11/19 09:05:22;;;;;;;;;;;12.80;41.30;;;;;;5039151;28;20450;-68
2022/11/19 09:07:48;;;;;;;22.55;5.90;;;12.70;41.30;;;;;;5044367;28;20076;-68
2022/11/19 09:10:15;;;;;;;18.10;5.75;;;12.70;41.10;;;;;;5044400;28;20070;-66
2022/11/19 09:12:42;;;;;;;22.70;5.43;;;12.60;42.00;;;;;;5048079;28;20096;-68
2022/11/19 09:15:08;;;;;;;;;;;12.60;42.40;;;;;;5040997;28;20240;-66
2022/11/19 09:17:35;;;;;;;11.25;3.75;;;12.60;42.40;;;;;;5045020;28;20010;-68
2022/11/19 09:20:02;;;;;;;26.55;3.92;;;12.50;42.30;;;;;;5043452;28;20104;-68
2022/11/19 09:22:30;;;;;;;8.80;3.15;;;12.50;42.50;;;;;;5043193;28;20066;-71
2022/11/19 09:24:56;;;;;;;15.20;3.08;;;12.60;43.10;;;;;;5041910;28;20117;-73
2022/11/19 09:27:22;;;;;;;;;;;12.60;44.00;;;;;;5042987;28;20590;-71
2022/11/19 09:29:49;;;;;;;27.60;11.65;;;12.50;43.50;;;;;;5042490;28;19958;-72
2022/11/19 09:32:17;;;;;;;;;;;12.40;44.30;;;;;;5044689;28;20084;-73
2022/11/19 09:34:44;;;;;;;37.95;19.05;;;12.40;43.00;;;;;;5040797;28;19961;-74
2022/11/19 09:37:14;;;;;;;33.15;18.17;;;12.30;43.10;;;;;;5044340;28;20090;-71
2022/11/19 09:39:40;;;;;;;39.35;18.60;;;12.30;42.80;;;;;;5042794;28;20669;-71
2022/11/19 09:42:31;;;;;;;37.40;22.70;;;12.30;44.20;;;;;;5054765;28;20160;-70
2022/11/19 09:45:35;;;;;;;27.10;14.30;;;12.30;44.70;;;;;;5042108;28;20078;-72
2022/11/19 09:48:12;;;;;;;27.65;12.68;;;12.30;44.30;;;;;;5026123;28;20450;-72
2022/11/19 09:51:02;;;;;;;34.83;15.20;;;12.10;46.00;;;;;;5042362;28;20163;-72
2022/11/19 09:53:37;;;;;;;33.25;16.88;;;12.10;45.80;;;;;;5039573;28;20477;-72
2022/11/19 09:56:05;;;;;;;38.70;16.95;;;12.10;46.80;;;;;;5040258;28;20082;-71
2022/11/19 09:58:32;;;;;;;34.88;14.85;;;12.20;46.70;;;;;;5042242;28;20157;-71
2022/11/19 10:00:58;;;;;;;;;;;12.10;47.10;;;;;;5046548;28;20074;-70
2022/11/19 10:03:33;;;;;;;25.10;9.65;;;12.10;46.80;;;;;;5035188;28;20029;-74
2022/11/19 10:06:19;;;;;;;19.77;7.05;;;12.00;47.20;;;;;;5043343;28;20101;-72
2022/11/19 10:09:04;;;;;;;17.05;5.63;;;11.90;46.70;;;;;;5040099;28;20080;-72
2022/11/19 10:11:40;;;;;;;17.73;5.75;;;11.80;46.80;;;;;;5041077;28;20071;-71
2022/11/19 10:14:41;;;;;;;19.02;5.70;;;11.80;47.20;;;;;;5042909;28;20435;-71
2022/11/19 10:17:45;;;;;;;11.60;3.85;;;11.80;47.10;;;;;;5037742;28;20244;-72
2022/11/19 10:20:30;;;;;;;9.20;3.40;;;11.80;46.70;;;;;;5039283;28;20085;-72
2022/11/19 10:23:02;;;;;;;13.35;4.70;;;11.90;47.00;;;;;;5041899;28;20065;-71
2022/11/19 10:25:37;;;;;;;12.90;5.47;;;11.80;47.80;;;;;;5043211;28;20074;-73
2022/11/19 10:28:22;;;;;;;17.13;4.45;;;11.80;47.70;;;;;;5037450;28;20506;-72
2022/11/19 10:30:54;;;;;;;14.52;4.05;;;11.70;47.10;;;;;;5047149;28;20465;-71
2022/11/19 10:33:26;;;;;;;9.52;3.35;;;11.70;46.10;;;;;;5042969;28;20517;-72
2022/11/19 10:36:07;;;;;;;9.10;2.90;;;11.80;46.20;;;;;;5040338;28;20121;-71
2022/11/19 10:39:00;;;;;;;8.82;2.72;;;11.80;45.00;;;;;;5038319;28;20095;-71
2022/11/19 10:41:32;;;;;;;9.27;3.75;;;11.80;45.30;;;;;;5035339;28;20082;-71
2022/11/19 10:44:36;;;;;;;11.73;4.15;;;11.70;45.20;;;;;;5040620;28;20086;-72
2022/11/19 10:47:00;;;;;;;12.20;3.72;;;11.60;46.10;;;;;;5042209;28;20092;-72
2022/11/19 10:49:27;;;;;;;12.80;3.42;;;11.70;46.30;;;;;;5039619;28;20127;-72
2022/11/19 10:51:53;;;;;;;;;;;11.70;46.40;;;;;;5054686;28;20082;-71
2022/11/19 10:54:26;;;;;;;17.95;5.25;;;11.60;47.50;;;;;;5043991;28;19957;-71
2022/11/19 10:56:55;;;;;;;22.02;5.07;;;11.60;46.20;;;;;;5043384;28;20090;-72
2022/11/19 10:59:26;;;;;;;20.90;5.97;;;11.60;47.20;;;;;;5038748;28;20073;-72
2022/11/19 11:02:15;;;;;;;12.63;4.63;;;11.60;47.50;;;;;;5036642;28;20128;-71
2022/11/19 11:05:01;;;;;;;10.25;4.47;;;11.60;46.60;;;;;;5035212;28;20069;-70
2022/11/19 11:07:47;;;;;;;13.65;5.10;;;11.50;47.10;;;;;;5046859;28;20074;-71
2022/11/19 11:10:36;;;;;;;16.08;5.18;;;11.40;47.90;;;;;;5041412;28;20476;-71
2022/11/19 11:16:18;;;;;;;10.82;5.78;;;11.50;48.10;;;;;;5040357;28;20577;-72
2022/11/19 11:18:45;;;;;;;10.93;5.57;;;11.40;48.40;;;;;;5042798;28;20077;-70
2022/11/19 11:21:33;;;;;;;10.90;5.38;;;11.40;47.50;;;;;;5039792;28;20085;-71
2022/11/19 11:24:03;;;;;;;10.52;5.38;;;11.40;48.70;;;;;;5035946;28;20171;-70
2022/11/19 11:26:32;;;;;;;11.77;5.68;;;11.40;48.60;;;;;;5041108;28;20525;-71
2022/11/19 11:29:12;;;;;;;13.73;4.97;;;11.30;48.30;;;;;;5034388;28;20085;-72
2022/11/19 11:31:44;;;;;;;10.35;5.43;;;11.20;49.20;;;;;;5038330;28;20073;-71
2022/11/19 11:34:34;;;;;;;11.75;4.68;;;11.20;48.70;;;;;;5036336;28;20098;-72
2022/11/19 11:37:03;;;;;;;9.27;3.60;;;11.20;48.40;;;;;;5032760;28;20123;-72
2022/11/19 11:39:35;;;;;;;9.20;3.70;;;11.20;48.00;;;;;;5040507;28;20066;-72
2022/11/19 11:42:03;;;;;;;11.23;3.05;;;11.20;47.90;;;;;;5042238;28;20527;-71
2022/11/19 11:44:35;;;;;;;10.85;3.33;;;11.30;47.60;;;;;;5037989;28;20093;-71
2022/11/19 11:47:10;;;;;;;7.82;3.00;;;11.40;47.80;;;;;;5042426;28;20109;-72
2022/11/19 11:49:45;;;;;;;9.05;3.10;;;11.40;47.90;;;;;;5039575;28;20073;-71
2022/11/19 11:52:41;;;;;;;12.43;2.95;;;11.50;48.30;;;;;;5030223;28;20100;-71
2022/11/19 11:55:24;;;;;;;7.93;3.00;;;11.40;48.70;;;;;;4952749;28;20515;-72
2022/11/19 11:57:55;;;;;;;8.30;2.72;;;11.40;49.10;;;;;;4969082;28;20558;-72
2022/11/19 12:00:43;;;;;;;6.38;2.42;;;11.30;49.30;;;;;;4968553;28;20456;-70
2022/11/19 12:03:20;;;;;;;11.68;2.40;;;11.30;49.20;;;;;;4968119;28;20145;-71
2022/11/19 12:06:01;;;;;;;6.65;2.42;;;11.30;49.40;;;;;;4967661;28;20079;-70
2022/11/19 12:08:57;;;;;;;9.50;3.05;;;11.30;49.50;;;;;;4968936;28;20079;-71
2022/11/19 12:11:54;;;;;;;12.48;2.72;;;11.20;49.90;;;;;;4967823;28;20099;-72
2022/11/19 12:14:49;;;;;;;13.00;2.40;;;11.10;50.10;;;;;;4967703;28;20134;-71
2022/11/19 12:17:37;;;;;;;8.88;2.00;;;11.00;50.00;;;;;;4916089;28;20131;-72
2022/11/19 12:20:21;;;;;;;;;;;11.10;50.70;;;;;;4968724;28;20162;-71
2022/11/19 12:23:14;;;;;;;8.35;1.67;;;11.10;50.00;;;;;;4968234;28;20046;-70
2022/11/19 12:25:46;;;;;;;8.18;2.00;;;10.90;51.50;;;;;;4967863;28;20246;-71
2022/11/19 12:28:35;;;;;;;4.68;1.50;;;10.90;51.40;;;;;;4967906;28;20110;-72
2022/11/19 12:31:07;;;;;;;7.55;1.88;;;10.90;50.20;;;;;;4984981;28;20546;-71
2022/11/19 12:33:46;;;;;;;8.57;2.05;;;10.80;50.60;;;;;;5046318;28;20074;-72
2022/11/19 12:36:51;;;;;;;6.40;1.92;;;10.90;51.10;;;;;;5039375;28;20668;-71
2022/11/19 12:39:26;;;;;;;10.70;1.70;;;10.80;50.30;;;;;;5037865;28;20066;-72
2022/11/19 12:41:52;;;;;;;9.95;1.83;;;10.90;51.40;;;;;;5040422;28;20163;-70
2022/11/19 12:44:36;;;;;;;4.88;1.58;;;11.00;51.10;;;;;;5041874;28;20535;-72
2022/11/19 12:47:03;;;;;;;3.72;1.45;;;10.80;50.90;;;;;;5036359;28;20099;-72
2022/11/19 12:50:01;;;;;;;9.88;1.90;;;10.80;50.70;;;;;;5034325;28;20438;-72
2022/11/19 12:52:58;;;;;;;13.77;1.80;;;10.90;50.80;;;;;;5042431;28;20073;-72
2022/11/19 12:55:55;;;;;;;9.05;1.67;;;10.80;50.40;;;;;;5040394;28;20153;-71
2022/11/19 12:58:26;;;;;;;7.50;1.77;;;10.70;50.50;;;;;;5041072;28;20066;-71
2022/11/19 13:01:00;;;;;;;8.18;1.73;;;10.80;50.60;;;;;;5043439;28;20073;-71
2022/11/19 13:03:46;;;;;;;5.65;1.98;;;10.70;49.90;;;;;;5041929;28;20135;-72
2022/11/19 13:06:40;;;;;;;3.45;1.80;;;10.70;50.70;;;;;;5041808;28;20070;-72
2022/11/19 13:09:45;;;;;;;10.00;1.95;;;10.70;49.60;;;;;;5042103;28;20090;-72
2022/11/19 13:12:15;;;;;;;12.13;1.90;;;10.70;49.40;;;;;;5040221;28;20066;-71
2022/11/19 13:14:52;;;;;;;9.32;2.20;;;10.80;48.50;;;;;;5042031;28;20101;-71
2022/11/19 13:17:26;;;;;;;8.30;2.00;;;10.80;48.60;;;;;;5039942;28;20093;-70
2022/11/19 13:20:04;;;;;;;10.90;1.98;;;10.80;49.90;;;;;;5042148;28;20078;-71
2022/11/19 13:22:41;;;;;;;9.57;2.00;;;10.80;49.50;;;;;;5039641;28;20058;-71
2022/11/19 13:25:36;;;;;;;10.98;2.10;;;10.70;50.90;;;;;;5041985;28;20124;-72
2022/11/19 13:28:12;;;;;;;9.18;1.90;;;10.70;49.60;;;;;;5042347;28;20110;-73
2022/11/19 13:30:43;;;;;;;7.40;2.28;;;10.60;49.60;;;;;;5043078;28;20089;-70
2022/11/19 13:33:25;;;;;;;10.40;2.20;;;10.60;49.50;;;;;;5059217;28;20070;-71
2022/11/19 13:36:09;;;;;;;10.00;2.10;;;10.60;49.80;;;;;;5039703;28;20488;-71